Time;durP1;ratioP1;P1;durP2;ratioP2;P2;SDS_P1;SDS_P2;PMS_P1;PMS_P2;Temp;Humidity;BMP_temperature;BMP_pressure;BME280_temperature;BME280_humidity;BME280_pressure;Samples;Min_cycle;Max_cycle;Signal;HPM_P1;HPM_P2
2021/06/24 00:01:18;;;;;;;10.85;5.35;;;13.70;79.20;;;;;;4996412;28;20046;-84
2021/06/24 00:03:45;;;;;;;11.55;5.50;;;13.60;79.20;;;;;;5013884;28;20136;-85
2021/06/24 00:06:12;;;;;;;8.05;4.75;;;13.60;79.20;;;;;;4996481;28;20049;-85
2021/06/24 00:08:39;;;;;;;16.10;6.03;;;13.60;79.20;;;;;;4995541;28;20052;-85
2021/06/24 00:11:09;;;;;;;8.45;5.43;;;13.70;79.00;;;;;;4996761;28;20060;-84
2021/06/24 00:13:38;;;;;;;13.20;5.50;;;13.60;78.90;;;;;;4996278;28;20077;-84
2021/06/24 00:16:07;;;;;;;13.15;5.88;;;13.60;79.00;;;;;;4995703;28;20064;-85
2021/06/24 00:18:35;;;;;;;10.00;5.47;;;13.60;79.00;;;;;;4996117;28;20491;-85
2021/06/24 00:21:02;;;;;;;10.85;5.05;;;13.60;79.10;;;;;;4996123;28;20129;-84
2021/06/24 00:23:29;;;;;;;7.65;4.68;;;13.60;79.10;;;;;;4995917;28;20058;-84
2021/06/24 00:25:59;;;;;;;14.55;5.78;;;13.60;79.10;;;;;;5013324;28;20689;-85
2021/06/24 00:28:28;;;;;;;10.27;4.88;;;13.60;79.10;;;;;;4996382;28;20133;-85
2021/06/24 00:30:57;;;;;;;17.20;5.70;;;13.60;79.10;;;;;;4996237;28;20133;-85
2021/06/24 00:33:25;;;;;;;9.57;4.65;;;13.60;79.10;;;;;;4995838;28;20054;-84
2021/06/24 00:35:53;;;;;;;10.48;5.15;;;13.60;79.10;;;;;;5013528;28;20499;-85
2021/06/24 00:38:20;;;;;;;14.50;6.50;;;13.60;79.20;;;;;;4995805;28;20151;-85
2021/06/24 00:40:47;;;;;;;10.38;4.38;;;13.60;79.20;;;;;;4995835;28;20056;-87
2021/06/24 00:43:18;;;;;;;7.75;4.93;;;13.60;79.20;;;;;;4996059;28;20523;-86
2021/06/24 00:45:46;;;;;;;9.88;5.13;;;13.60;79.30;;;;;;4995757;28;20133;-84
2021/06/24 00:48:14;;;;;;;10.68;5.63;;;13.60;79.30;;;;;;4995841;28;20060;-86
2021/06/24 00:50:43;;;;;;;10.63;5.10;;;13.60;79.30;;;;;;4996136;28;20068;-84
2021/06/24 00:53:11;;;;;;;13.80;6.43;;;13.70;79.40;;;;;;4995743;28;20062;-84
2021/06/24 00:55:44;;;;;;;16.02;6.18;;;13.60;79.30;;;;;;4995720;28;20053;-84
2021/06/24 00:58:20;;;;;;;9.57;5.43;;;13.60;79.40;;;;;;4995168;28;20146;-84
2021/06/24 01:00:52;;;;;;;10.10;5.05;;;13.60;79.40;;;;;;4995891;28;20050;-85
2021/06/24 01:03:20;;;;;;;9.55;5.55;;;13.60;79.40;;;;;;4995533;28;20133;-86
2021/06/24 01:05:48;;;;;;;10.30;6.00;;;13.60;79.50;;;;;;4995725;28;20426;-86
2021/06/24 01:08:16;;;;;;;12.52;5.30;;;13.60;79.50;;;;;;4995721;28;20080;-84
2021/06/24 01:10:47;;;;;;;14.00;6.85;;;13.60;79.60;;;;;;4995779;28;20077;-84
2021/06/24 01:13:15;;;;;;;12.88;6.95;;;13.60;79.60;;;;;;4995733;28;20062;-84
2021/06/24 01:15:42;;;;;;;12.27;6.95;;;13.60;79.50;;;;;;4994637;28;20583;-86
2021/06/24 01:18:10;;;;;;;11.23;6.75;;;13.60;79.50;;;;;;4995714;28;20053;-86
2021/06/24 01:20:39;;;;;;;16.65;6.72;;;13.60;79.50;;;;;;4998804;28;20050;-83
2021/06/24 01:23:07;;;;;;;12.98;7.35;;;13.60;79.60;;;;;;4999425;28;20072;-85
2021/06/24 01:25:35;;;;;;;13.70;6.80;;;13.60;79.60;;;;;;4999506;28;20050;-85
2021/06/24 01:28:06;;;;;;;12.25;6.15;;;13.60;79.60;;;;;;4999377;28;20058;-85
2021/06/24 01:30:35;;;;;;;16.20;6.53;;;13.50;79.70;;;;;;4999293;28;20050;-84
2021/06/24 01:33:04;;;;;;;13.30;6.82;;;13.50;79.80;;;;;;4999091;28;20057;-86
2021/06/24 01:35:32;;;;;;;16.58;6.35;;;13.50;79.80;;;;;;4998895;28;20046;-85
2021/06/24 01:38:05;;;;;;;7.88;5.70;;;13.50;79.80;;;;;;4999138;28;20665;-85
2021/06/24 01:40:33;;;;;;;11.43;5.90;;;13.50;79.80;;;;;;4999077;28;20133;-84
2021/06/24 01:43:04;;;;;;;8.90;5.50;;;13.50;79.80;;;;;;4999008;28;20054;-85
2021/06/24 01:45:34;;;;;;;18.35;6.30;;;13.50;79.80;;;;;;4998966;28;20046;-87
2021/06/24 01:48:02;;;;;;;10.57;5.88;;;13.50;79.80;;;;;;4998973;28;20078;-85
2021/06/24 01:50:29;;;;;;;10.43;5.55;;;13.50;79.80;;;;;;4998478;28;20049;-86
2021/06/24 01:52:57;;;;;;;19.70;7.35;;;13.50;79.80;;;;;;4999054;28;20096;-85
2021/06/24 01:55:33;;;;;;;17.27;6.22;;;13.50;79.80;;;;;;4998679;28;20080;-85
2021/06/24 01:58:05;;;;;;;15.25;6.70;;;13.50;79.80;;;;;;4998144;28;20133;-85
2021/06/24 02:00:33;;;;;;;11.55;5.90;;;13.50;79.80;;;;;;4998918;28;20074;-87
2021/06/24 02:03:01;;;;;;;11.73;5.78;;;13.50;79.70;;;;;;4998721;28;20065;-85
2021/06/24 02:05:28;;;;;;;14.43;6.97;;;13.50;79.80;;;;;;4998335;28;20046;-84
2021/06/24 02:07:55;;;;;;;9.80;5.40;;;13.50;79.80;;;;;;4998919;28;20045;-85
2021/06/24 02:10:22;;;;;;;9.40;5.63;;;13.50;79.80;;;;;;5015943;28;20042;-84
2021/06/24 02:12:50;;;;;;;12.23;6.32;;;13.50;79.80;;;;;;4998334;28;20081;-84
2021/06/24 02:15:19;;;;;;;11.15;6.57;;;13.50;79.80;;;;;;4997815;28;20077;-84
2021/06/24 02:17:46;;;;;;;9.63;5.82;;;13.50;79.80;;;;;;5015863;28;20046;-85
2021/06/24 02:20:16;;;;;;;12.73;5.57;;;13.50;79.80;;;;;;4998208;28;20060;-84
2021/06/24 02:22:45;;;;;;;11.98;6.70;;;13.50;79.80;;;;;;4998100;28;20133;-87
2021/06/24 02:25:13;;;;;;;14.00;7.38;;;13.50;79.70;;;;;;4998300;28;20050;-85
2021/06/24 02:27:41;;;;;;;13.07;5.82;;;13.50;79.70;;;;;;4998184;28;20064;-85
2021/06/24 02:30:10;;;;;;;10.32;6.75;;;13.50;79.70;;;;;;4997753;28;20510;-84
2021/06/24 02:32:38;;;;;;;11.40;6.82;;;13.50;79.70;;;;;;5015450;28;20064;-85
2021/06/24 02:35:08;;;;;;;12.55;6.75;;;13.50;79.70;;;;;;4997989;28;20069;-85
2021/06/24 02:37:35;;;;;;;13.20;7.15;;;13.50;79.70;;;;;;4998134;28;20053;-85
2021/06/24 02:40:04;;;;;;;16.65;7.80;;;13.50;79.70;;;;;;4998022;28;20053;-85
2021/06/24 02:42:34;;;;;;;14.00;8.63;;;13.50;79.60;;;;;;4998039;28;20050;-84
2021/06/24 02:45:01;;;;;;;15.88;7.10;;;13.50;79.60;;;;;;4998151;28;20129;-85
2021/06/24 02:47:28;;;;;;;12.35;7.30;;;13.50;79.60;;;;;;4997713;28;20054;-84
2021/06/24 02:49:55;;;;;;;14.18;6.07;;;13.50;79.60;;;;;;4998025;28;20053;-85
2021/06/24 02:52:23;;;;;;;12.13;6.13;;;13.50;79.60;;;;;;5015171;28;20058;-84
2021/06/24 02:54:51;;;;;;;9.57;5.93;;;13.50;79.60;;;;;;4997918;28;20060;-85
2021/06/24 02:57:21;;;;;;;13.10;6.70;;;13.50;79.60;;;;;;4997708;28;20064;-84
2021/06/24 02:59:48;;;;;;;16.40;7.35;;;13.40;79.70;;;;;;4997392;28;20057;-84
2021/06/24 03:02:16;;;;;;;8.60;6.13;;;13.50;79.70;;;;;;4997048;28;20137;-84
2021/06/24 03:04:43;;;;;;;9.27;6.97;;;13.40;79.70;;;;;;4997691;28;20560;-84
2021/06/24 03:07:11;;;;;;;11.05;7.32;;;13.50;79.70;;;;;;4997744;28;20385;-84
2021/06/24 03:09:38;;;;;;;14.63;6.93;;;13.40;79.70;;;;;;4997130;28;20050;-84
2021/06/24 03:12:06;;;;;;;12.38;7.32;;;13.40;79.70;;;;;;4997558;28;20054;-83
2021/06/24 03:14:33;;;;;;;11.98;6.82;;;13.40;79.80;;;;;;4997399;28;20050;-85
2021/06/24 03:17:00;;;;;;;10.57;6.20;;;13.40;79.80;;;;;;4997099;28;20062;-85
2021/06/24 03:19:28;;;;;;;14.73;6.88;;;13.40;79.80;;;;;;4997191;28;20079;-85
2021/06/24 03:21:55;;;;;;;11.55;6.68;;;13.40;79.90;;;;;;4997181;28;20049;-85
2021/06/24 03:24:22;;;;;;;15.18;6.82;;;13.40;79.90;;;;;;4997254;28;20058;-84
2021/06/24 03:26:49;;;;;;;15.10;6.55;;;13.40;79.90;;;;;;4997365;28;20052;-84
2021/06/24 03:29:16;;;;;;;13.30;6.45;;;13.40;79.90;;;;;;4997058;28;20048;-84
2021/06/24 03:31:45;;;;;;;12.20;6.25;;;13.40;79.80;;;;;;4996806;28;20050;-85
2021/06/24 03:34:12;;;;;;;10.55;6.65;;;13.40;79.80;;;;;;4997105;28;20058;-84
2021/06/24 03:36:39;;;;;;;13.07;6.38;;;13.40;79.80;;;;;;4997127;28;20054;-84
2021/06/24 03:39:06;;;;;;;15.23;6.43;;;13.30;79.70;;;;;;4997041;28;20054;-84
2021/06/24 03:41:34;;;;;;;12.32;6.70;;;13.30;79.80;;;;;;4996140;28;20049;-85
2021/06/24 03:44:01;;;;;;;12.40;6.60;;;13.30;79.80;;;;;;4996605;28;20050;-85
2021/06/24 03:46:32;;;;;;;12.45;6.72;;;13.20;79.80;;;;;;4997083;28;20093;-84
2021/06/24 03:48:59;;;;;;;11.95;7.10;;;13.20;79.80;;;;;;4996431;28;20136;-84
2021/06/24 03:51:27;;;;;;;14.07;6.72;;;13.20;79.70;;;;;;4996797;28;20060;-84
2021/06/24 03:53:54;;;;;;;9.23;6.45;;;13.20;79.70;;;;;;5013775;28;20057;-84
2021/06/24 03:56:21;;;;;;;12.20;6.53;;;13.20;79.70;;;;;;4996469;28;20418;-84
2021/06/24 03:58:48;;;;;;;9.85;6.35;;;13.10;79.70;;;;;;4996108;28;20057;-85
2021/06/24 04:01:15;;;;;;;10.00;6.18;;;13.10;79.70;;;;;;4996170;28;20042;-84
2021/06/24 04:03:42;;;;;;;12.52;6.80;;;13.10;79.70;;;;;;4996097;28;20468;-86
2021/06/24 04:06:09;;;;;;;13.07;6.97;;;13.10;79.80;;;;;;4996353;28;20499;-84
2021/06/24 04:08:37;;;;;;;8.48;6.60;;;13.10;79.80;;;;;;4996366;28;20045;-84
2021/06/24 04:11:08;;;;;;;13.88;6.80;;;13.10;79.80;;;;;;4996790;28;20109;-84
2021/06/24 04:13:36;;;;;;;18.45;8.55;;;13.00;79.90;;;;;;4996374;28;20495;-84
2021/06/24 04:16:06;;;;;;;15.15;9.15;;;13.00;79.90;;;;;;4995374;28;20054;-84
2021/06/24 04:18:34;;;;;;;12.32;8.75;;;13.00;80.00;;;;;;4996167;28;20504;-84
2021/06/24 04:21:02;;;;;;;13.43;8.70;;;12.90;79.90;;;;;;4996110;28;20054;-83
2021/06/24 04:23:32;;;;;;;15.25;9.85;;;13.00;79.90;;;;;;4996000;28;20124;-85
2021/06/24 04:25:59;;;;;;;15.00;8.82;;;12.90;79.90;;;;;;4996296;28;20463;-84
2021/06/24 04:28:26;;;;;;;21.05;9.75;;;12.90;79.90;;;;;;4995931;28;20415;-84
2021/06/24 04:30:53;;;;;;;12.32;8.55;;;12.90;79.90;;;;;;4996051;28;20058;-83
2021/06/24 04:33:21;;;;;;;14.45;8.63;;;12.90;79.90;;;;;;4996289;28;20084;-84
2021/06/24 04:35:48;;;;;;;15.75;8.75;;;12.90;79.90;;;;;;4996022;28;20514;-84
2021/06/24 04:38:15;;;;;;;14.13;7.93;;;12.80;79.90;;;;;;4995921;28;20060;-85
2021/06/24 04:40:45;;;;;;;15.73;7.93;;;12.80;80.00;;;;;;4995963;28;20057;-84
2021/06/24 04:43:13;;;;;;;14.70;8.45;;;12.80;80.10;;;;;;5012892;28;20523;-85
2021/06/24 04:45:40;;;;;;;19.60;8.25;;;12.80;80.10;;;;;;4995738;28;20487;-84
2021/06/24 04:48:07;;;;;;;15.00;8.55;;;12.80;80.20;;;;;;4996052;28;20077;-86
2021/06/24 04:50:38;;;;;;;13.85;8.63;;;12.80;80.30;;;;;;4995781;28;20049;-84
2021/06/24 04:53:05;;;;;;;22.33;8.45;;;12.80;80.40;;;;;;4996244;28;20553;-85
2021/06/24 04:55:38;;;;;;;19.92;9.43;;;12.80;80.50;;;;;;4999578;28;20416;-85
2021/06/24 04:58:07;;;;;;;16.17;8.65;;;12.80;80.50;;;;;;5016537;28;20058;-86
2021/06/24 05:00:35;;;;;;;15.18;8.13;;;12.80;80.60;;;;;;4999792;28;20484;-85
2021/06/24 05:03:03;;;;;;;19.33;7.88;;;12.80;80.60;;;;;;4999494;28;20412;-84
2021/06/24 05:05:33;;;;;;;12.95;7.90;;;12.80;80.60;;;;;;4999621;28;20048;-85
2021/06/24 05:08:12;;;;;;;20.88;7.80;;;12.90;80.60;;;;;;4999502;28;20386;-86
2021/06/24 05:10:39;;;;;;;16.08;7.03;;;12.90;80.70;;;;;;4999828;28;20526;-84
2021/06/24 05:13:09;;;;;;;14.63;6.85;;;12.90;80.70;;;;;;4999497;28;20056;-84
2021/06/24 05:15:36;;;;;;;14.93;6.80;;;12.90;80.80;;;;;;4998690;28;20054;-85
2021/06/24 05:18:04;;;;;;;15.63;7.32;;;12.90;80.80;;;;;;4999553;28;20079;-85
2021/06/24 05:20:31;;;;;;;19.77;6.10;;;12.90;80.90;;;;;;5017149;28;20050;-84
2021/06/24 05:22:58;;;;;;;19.48;6.53;;;13.00;80.90;;;;;;4999253;28;20105;-85
2021/06/24 05:25:25;;;;;;;18.60;7.40;;;13.00;80.80;;;;;;4999488;28;20045;-85
2021/06/24 05:27:53;;;;;;;10.02;6.32;;;13.00;80.80;;;;;;4999015;28;20085;-86
2021/06/24 05:30:20;;;;;;;13.68;6.43;;;13.10;80.80;;;;;;4999251;28;20060;-86
2021/06/24 05:32:48;;;;;;;15.00;5.95;;;13.10;80.80;;;;;;4999450;28;20057;-86
2021/06/24 05:35:15;;;;;;;10.35;5.80;;;13.20;80.80;;;;;;4999138;28;20500;-85
2021/06/24 05:37:42;;;;;;;12.10;4.70;;;13.20;80.80;;;;;;4999111;28;20065;-85
2021/06/24 05:40:09;;;;;;;13.65;5.78;;;13.30;80.90;;;;;;4998878;28;20052;-86
2021/06/24 05:42:36;;;;;;;11.15;4.75;;;13.40;80.90;;;;;;4998635;28;20566;-86
2021/06/24 05:45:05;;;;;;;10.02;4.45;;;13.40;80.90;;;;;;4998992;28;20049;-85
2021/06/24 05:47:36;;;;;;;10.38;4.75;;;13.40;80.90;;;;;;4998888;28;20060;-86
2021/06/24 05:50:07;;;;;;;9.77;4.60;;;13.50;80.70;;;;;;4999454;28;20076;-86
2021/06/24 05:52:37;;;;;;;9.98;4.80;;;13.60;80.60;;;;;;4998907;28;20072;-85
2021/06/24 05:55:07;;;;;;;10.77;5.45;;;13.60;80.50;;;;;;4998911;28;20052;-88
2021/06/24 05:57:34;;;;;;;10.95;4.18;;;13.60;79.90;;;;;;4997787;28;20061;-85
2021/06/24 06:00:04;;;;;;;10.18;4.40;;;13.70;79.70;;;;;;4999050;28;20113;-86
2021/06/24 06:02:31;;;;;;;12.40;4.70;;;13.70;79.60;;;;;;4998552;28;20105;-86
2021/06/24 06:04:58;;;;;;;12.40;4.53;;;13.80;79.30;;;;;;4997942;28;20133;-86
2021/06/24 06:07:25;;;;;;;10.68;4.03;;;13.80;79.30;;;;;;4998573;28;20077;-85
2021/06/24 06:09:52;;;;;;;10.68;4.20;;;13.90;79.20;;;;;;4998620;28;20125;-85
2021/06/24 06:12:26;;;;;;;13.07;5.35;;;13.90;79.30;;;;;;4998483;28;20092;-85
2021/06/24 06:14:53;;;;;;;12.18;4.20;;;13.90;79.40;;;;;;5001170;28;20073;-85
2021/06/24 06:17:23;;;;;;;10.93;4.22;;;13.90;79.50;;;;;;5018218;28;20491;-85
2021/06/24 06:19:50;;;;;;;8.15;4.18;;;14.00;79.40;;;;;;5017908;28;20084;-85
2021/06/24 06:22:17;;;;;;;8.57;3.47;;;14.00;79.40;;;;;;5018080;28;20050;-85
2021/06/24 06:24:44;;;;;;;11.05;3.50;;;14.10;79.10;;;;;;5017839;28;20057;-85
2021/06/24 06:27:11;;;;;;;9.65;4.05;;;14.10;78.70;;;;;;5018115;28;20049;-85
2021/06/24 06:29:38;;;;;;;11.48;4.38;;;14.20;78.70;;;;;;5017918;28;20053;-86
2021/06/24 06:32:06;;;;;;;12.52;5.15;;;14.20;78.80;;;;;;5018046;28;20060;-84
2021/06/24 06:34:33;;;;;;;11.70;3.90;;;14.20;78.60;;;;;;5018025;28;20053;-85
2021/06/24 06:37:00;;;;;;;8.52;3.60;;;14.20;78.60;;;;;;5017833;28;20073;-85
2021/06/24 06:39:28;;;;;;;8.88;4.00;;;14.30;78.70;;;;;;5017457;28;20045;-85
2021/06/24 06:41:55;;;;;;;9.65;4.10;;;14.40;78.80;;;;;;5017658;28;20048;-87
2021/06/24 06:44:22;;;;;;;8.55;3.97;;;14.40;78.80;;;;;;5017653;28;20062;-85
2021/06/24 06:46:49;;;;;;;8.70;3.95;;;14.40;78.70;;;;;;5017418;28;20499;-85
2021/06/24 06:49:16;;;;;;;10.30;3.67;;;14.50;78.70;;;;;;5017741;28;20041;-86
2021/06/24 06:51:50;;;;;;;;;;;14.50;78.70;;;;;;5018855;28;20057;-86
2021/06/24 06:54:17;;;;;;;10.82;4.30;;;14.50;78.40;;;;;;5017300;28;19921;-86
2021/06/24 06:56:47;;;;;;;12.38;4.43;;;14.60;78.40;;;;;;5010107;28;20058;-86
2021/06/24 06:59:14;;;;;;;7.20;3.75;;;14.60;78.50;;;;;;4997014;28;20133;-86
2021/06/24 07:01:49;;;;;;;11.57;3.80;;;14.70;78.70;;;;;;4997670;28;20061;-87
2021/06/24 07:04:20;;;;;;;9.75;3.70;;;14.80;78.80;;;;;;4997462;28;20507;-88
2021/06/24 07:06:48;;;;;;;9.13;4.07;;;14.90;78.80;;;;;;5013867;28;20105;-87
2021/06/24 07:09:15;;;;;;;11.55;4.55;;;14.90;78.60;;;;;;5013446;28;20060;-88
2021/06/24 07:11:42;;;;;;;7.45;3.72;;;15.00;78.40;;;;;;5013801;28;20053;-87
2021/06/24 07:14:09;;;;;;;10.00;4.07;;;15.10;78.40;;;;;;5013563;28;20057;-86
2021/06/24 07:16:36;;;;;;;8.30;3.97;;;15.20;78.20;;;;;;4999112;28;20133;-88
2021/06/24 07:19:06;;;;;;;12.88;4.32;;;15.20;78.20;;;;;;4997820;28;20062;-87
2021/06/24 07:21:33;;;;;;;9.88;3.60;;;15.30;78.20;;;;;;4997380;28;20083;-89
2021/06/24 07:24:00;;;;;;;11.60;3.75;;;15.40;78.00;;;;;;4996781;28;20050;-87
2021/06/24 07:26:28;;;;;;;11.65;4.35;;;15.40;77.90;;;;;;4997350;28;20062;-87
2021/06/24 07:28:55;;;;;;;12.35;4.60;;;15.50;77.80;;;;;;4997403;28;20046;-88
2021/06/24 07:31:22;;;;;;;9.98;3.47;;;15.60;77.70;;;;;;4997160;28;20060;-87
2021/06/24 07:33:53;;;;;;;10.63;4.63;;;15.60;77.40;;;;;;4997325;28;20484;-85
2021/06/24 07:36:20;;;;;;;11.45;4.35;;;15.70;75.80;;;;;;4996953;28;20045;-88
2021/06/24 07:38:49;;;;;;;11.63;4.57;;;15.60;75.90;;;;;;4997100;28;20061;-87
2021/06/24 07:41:16;;;;;;;11.73;3.80;;;15.70;76.10;;;;;;4997207;28;20125;-86
2021/06/24 07:43:43;;;;;;;8.05;4.35;;;15.70;76.20;;;;;;4996597;28;20076;-87
2021/06/24 07:46:11;;;;;;;10.32;3.97;;;15.70;76.20;;;;;;4975473;28;20050;-86
2021/06/24 07:48:39;;;;;;;10.57;3.85;;;15.80;76.40;;;;;;4919672;28;20058;-88
2021/06/24 07:51:06;;;;;;;9.93;4.13;;;15.80;76.40;;;;;;4981850;28;20042;-85
2021/06/24 07:53:33;;;;;;;11.55;4.65;;;15.90;76.20;;;;;;4995323;28;20140;-88
2021/06/24 07:56:07;;;;;;;9.40;4.53;;;15.80;75.90;;;;;;4995681;28;20435;-90
2021/06/24 07:58:35;;;;;;;11.98;4.43;;;15.90;76.00;;;;;;4995622;28;20062;-86
2021/06/24 08:01:07;;;;;;;8.88;4.47;;;15.90;76.00;;;;;;4995847;28;20046;-88
2021/06/24 08:03:38;;;;;;;10.50;4.50;;;15.90;76.30;;;;;;5011387;28;20229;-88
2021/06/24 08:06:06;;;;;;;13.13;4.78;;;15.90;76.50;;;;;;5032284;28;20053;-85
2021/06/24 08:08:36;;;;;;;11.13;4.88;;;15.90;76.60;;;;;;5032220;28;20055;-87
2021/06/24 08:11:04;;;;;;;12.05;4.55;;;16.00;76.70;;;;;;5014806;28;20104;-87
2021/06/24 08:13:31;;;;;;;11.15;4.75;;;16.10;76.80;;;;;;5014924;28;20483;-86
2021/06/24 08:16:21;;;;;;;11.23;4.45;;;16.10;76.80;;;;;;5003263;28;20113;-89
2021/06/24 08:18:52;;;;;;;7.82;4.07;;;16.20;76.50;;;;;;5012542;28;20137;-86
2021/06/24 08:21:20;;;;;;;11.52;4.53;;;16.30;76.30;;;;;;5012456;28;20503;-87
2021/06/24 08:23:47;;;;;;;9.82;4.57;;;16.30;76.40;;;;;;4994998;28;20045;-87
2021/06/24 08:26:15;;;;;;;8.90;4.50;;;16.30;76.20;;;;;;4994929;28;20056;-86
2021/06/24 08:28:42;;;;;;;12.43;4.78;;;16.40;76.20;;;;;;4994432;28;20042;-89
2021/06/24 08:31:10;;;;;;;9.85;4.78;;;16.40;76.00;;;;;;5004623;28;20054;-86
2021/06/24 08:33:43;;;;;;;12.43;5.63;;;16.40;76.00;;;;;;4994823;28;20578;-88
2021/06/24 08:36:10;;;;;;;11.85;5.93;;;16.50;76.10;;;;;;4994887;28;20136;-87
2021/06/24 08:38:38;;;;;;;13.13;5.95;;;16.60;76.40;;;;;;4995029;28;20578;-86
2021/06/24 08:41:08;;;;;;;10.38;5.80;;;16.60;76.20;;;;;;4994726;28;20053;-87
2021/06/24 08:43:39;;;;;;;10.75;7.22;;;16.60;76.00;;;;;;4994775;28;20126;-86
2021/06/24 08:46:10;;;;;;;13.53;7.73;;;16.70;75.80;;;;;;4995091;28;20046;-86
2021/06/24 08:48:38;;;;;;;16.52;7.45;;;16.70;75.80;;;;;;4993897;28;20289;-85
2021/06/24 08:51:07;;;;;;;13.68;7.00;;;16.80;75.80;;;;;;4994650;28;20060;-84
2021/06/24 08:53:35;;;;;;;12.63;6.93;;;16.80;75.60;;;;;;4994616;28;20113;-84
2021/06/24 08:56:03;;;;;;;12.07;6.63;;;16.90;75.50;;;;;;4994811;28;20054;-86
2021/06/24 08:58:33;;;;;;;11.43;6.05;;;16.90;75.40;;;;;;4994132;28;20058;-86
2021/06/24 09:01:02;;;;;;;13.13;7.43;;;16.90;75.40;;;;;;4994672;28;20054;-87
2021/06/24 09:03:31;;;;;;;16.50;7.70;;;16.90;75.40;;;;;;4995590;28;20042;-89
2021/06/24 09:06:03;;;;;;;18.08;8.60;;;17.00;75.40;;;;;;4995354;28;20078;-88
2021/06/24 09:08:45;;;;;;;14.73;8.67;;;17.10;75.30;;;;;;4996024;28;20042;-89
2021/06/24 09:11:22;;;;;;;16.83;9.13;;;17.10;75.30;;;;;;4996905;28;20113;-87
2021/06/24 09:14:13;;;;;;;17.73;10.02;;;17.10;75.20;;;;;;4995733;28;20140;-88
2021/06/24 09:16:43;;;;;;;11.80;8.45;;;17.20;75.00;;;;;;5013452;28;20058;-89
2021/06/24 09:19:21;;;;;;;18.33;9.93;;;17.20;74.90;;;;;;5014751;28;20141;-88
2021/06/24 09:21:56;;;;;;;13.80;10.75;;;17.20;74.80;;;;;;5014795;28;20061;-88
2021/06/24 09:24:34;;;;;;;13.63;9.68;;;17.30;74.70;;;;;;5014933;28;20042;-86
2021/06/24 09:27:04;;;;;;;15.73;9.73;;;17.30;74.50;;;;;;5014899;28;20046;-85
2021/06/24 09:29:33;;;;;;;16.33;10.45;;;17.30;74.30;;;;;;5015453;28;20483;-87
2021/06/24 09:32:01;;;;;;;13.00;10.25;;;17.40;74.10;;;;;;5014989;28;20056;-86
2021/06/24 09:34:28;;;;;;;17.60;11.65;;;17.40;74.00;;;;;;5032183;28;20077;-87
2021/06/24 09:37:01;;;;;;;17.73;11.05;;;17.40;74.10;;;;;;5015011;28;20057;-85
2021/06/24 09:39:37;;;;;;;18.95;11.43;;;17.50;74.10;;;;;;5014754;28;20065;-88
2021/06/24 09:42:10;;;;;;;19.45;11.95;;;17.60;74.00;;;;;;5018514;28;20061;-87
2021/06/24 09:44:39;;;;;;;19.30;12.77;;;17.70;73.90;;;;;;5018385;28;20049;-87
2021/06/24 09:47:19;;;;;;;21.17;13.30;;;17.80;73.80;;;;;;5015855;28;20049;-86
2021/06/24 09:50:08;;;;;;;17.27;11.02;;;17.90;73.80;;;;;;5001349;28;20045;-85
2021/06/24 09:52:35;;;;;;;17.92;11.55;;;18.10;74.00;;;;;;4998606;28;20499;-87
2021/06/24 09:55:08;;;;;;;17.23;10.30;;;18.30;73.90;;;;;;4998749;28;20046;-86
2021/06/24 09:57:37;;;;;;;16.20;11.07;;;18.40;73.50;;;;;;4998745;28;20049;-86
2021/06/24 10:00:21;;;;;;;15.82;10.95;;;18.60;73.30;;;;;;4998581;28;20053;-86
2021/06/24 10:03:08;;;;;;;15.05;11.25;;;18.80;73.10;;;;;;4998257;28;20140;-86
2021/06/24 10:05:36;;;;;;;16.33;10.73;;;18.90;73.00;;;;;;4998445;28;20050;-87
2021/06/24 10:08:04;;;;;;;16.17;10.38;;;19.10;72.50;;;;;;4998486;28;20061;-88
2021/06/24 10:10:31;;;;;;;19.77;10.93;;;19.30;72.00;;;;;;4998177;28;20124;-87
2021/06/24 10:12:58;;;;;;;15.38;10.40;;;19.30;71.50;;;;;;4998343;28;20054;-86
2021/06/24 10:15:28;;;;;;;16.83;9.65;;;19.50;71.80;;;;;;4998398;28;20136;-87
2021/06/24 10:17:56;;;;;;;13.65;8.75;;;19.60;71.70;;;;;;4997867;28;20435;-86
2021/06/24 10:20:27;;;;;;;16.50;10.27;;;19.80;71.30;;;;;;4998083;28;20140;-87
2021/06/24 10:23:01;;;;;;;14.27;10.00;;;19.90;71.10;;;;;;4997989;28;20566;-86
2021/06/24 10:25:29;;;;;;;13.52;8.55;;;20.00;71.20;;;;;;4998005;28;20050;-87
2021/06/24 10:27:59;;;;;;;12.48;9.30;;;20.10;70.70;;;;;;4998172;28;20145;-87
2021/06/24 10:30:26;;;;;;;13.25;9.48;;;20.20;70.40;;;;;;4998050;28;20052;-87
2021/06/24 10:33:07;;;;;;;14.93;9.88;;;20.30;69.00;;;;;;4997805;28;20053;-86
2021/06/24 10:35:41;;;;;;;19.52;10.18;;;20.30;69.10;;;;;;4997529;28;20140;-87
2021/06/24 10:38:12;;;;;;;16.52;10.48;;;20.40;69.20;;;;;;4997698;28;20500;-87
2021/06/24 10:40:55;;;;;;;14.98;11.25;;;20.50;69.10;;;;;;4997772;28;20549;-87
2021/06/24 10:43:24;;;;;;;15.00;11.48;;;20.60;69.30;;;;;;4997749;28;20052;-86
2021/06/24 10:46:11;;;;;;;18.98;10.65;;;20.70;69.00;;;;;;4997180;28;20045;-87
2021/06/24 10:48:39;;;;;;;16.25;10.65;;;20.70;68.60;;;;;;5001709;28;20097;-87
2021/06/24 10:51:08;;;;;;;14.88;9.80;;;20.70;68.30;;;;;;5012813;28;20052;-86
2021/06/24 10:53:42;;;;;;;16.55;10.50;;;20.80;68.10;;;;;;4997145;28;20427;-86
2021/06/24 10:56:31;;;;;;;17.27;9.95;;;20.80;68.20;;;;;;4997394;28;20048;-85
2021/06/24 10:59:01;;;;;;;15.73;10.90;;;20.80;68.50;;;;;;4997013;28;20093;-86
2021/06/24 11:01:44;;;;;;;18.05;11.23;;;20.80;67.70;;;;;;4996893;28;20129;-86
2021/06/24 11:04:44;;;;;;;16.25;10.07;;;20.80;66.90;;;;;;4997372;28;20113;-86
2021/06/24 11:07:19;;;;;;;16.55;10.82;;;20.80;67.20;;;;;;4919499;29;20088;-86
2021/06/24 11:10:25;;;;;;;16.98;10.73;;;20.80;67.10;;;;;;4935020;29;20078;-86
2021/06/24 11:13:04;;;;;;;16.23;10.90;;;20.80;67.30;;;;;;4919448;29;20063;-86
2021/06/24 11:15:51;;;;;;;17.80;10.45;;;20.80;67.50;;;;;;4919308;29;20051;-86
2021/06/24 11:18:31;;;;;;;19.98;12.68;;;20.90;67.50;;;;;;4919383;29;20179;-86
2021/06/24 11:21:02;;;;;;;18.10;12.60;;;20.90;66.20;;;;;;4934686;29;20052;-87
2021/06/24 11:23:34;;;;;;;18.08;10.63;;;20.80;65.90;;;;;;4919052;29;20077;-85
2021/06/24 11:26:05;;;;;;;16.42;11.95;;;20.90;66.10;;;;;;4918355;29;20056;-86
2021/06/24 11:34:52;;;;;;;22.77;11.80;;;20.80;66.60;;;;;;4933365;29;20124;-84
2021/06/24 11:37:27;;;;;;;15.45;11.75;;;20.80;66.80;;;;;;4918750;29;20058;-86
2021/06/24 11:40:09;;;;;;;17.77;12.07;;;20.80;65.90;;;;;;4936513;29;20055;-87
2021/06/24 11:42:42;;;;;;;18.15;12.23;;;20.80;66.60;;;;;;4979407;28;20152;-85
2021/06/24 11:45:14;;;;;;;13.90;11.52;;;20.80;66.70;;;;;;5004479;28;20056;-87
2021/06/24 11:47:45;;;;;;;20.85;12.82;;;20.70;65.70;;;;;;4995548;28;20471;-87
2021/06/24 12:04:06;;;;;;;19.23;11.73;;;20.90;66.00;;;;;;5012086;28;20045;-87
2021/06/24 12:06:54;;;;;;;18.00;12.82;;;21.10;66.10;;;;;;4994996;28;20419;-85
2021/06/24 12:09:27;;;;;;;16.13;11.15;;;21.30;66.80;;;;;;5012567;28;20060;-87
2021/06/24 12:11:57;;;;;;;15.57;11.25;;;21.40;66.80;;;;;;5012643;28;20042;-85
2021/06/24 12:14:30;;;;;;;16.50;11.05;;;21.60;66.20;;;;;;4994693;28;20504;-85
2021/06/24 12:17:17;;;;;;;16.38;9.80;;;21.90;65.80;;;;;;4995097;28;20058;-85
2021/06/24 12:19:50;;;;;;;21.15;10.48;;;22.10;65.00;;;;;;4994889;28;20061;-84
2021/06/24 12:22:39;;;;;;;15.80;10.80;;;22.30;64.40;;;;;;4995189;28;20419;-84
2021/06/24 12:25:22;;;;;;;12.88;9.52;;;22.40;64.00;;;;;;4994638;28;20412;-85
2021/06/24 12:28:00;;;;;;;14.02;9.63;;;22.50;63.80;;;;;;4993473;28;20132;-86
2021/06/24 12:30:29;;;;;;;15.10;10.30;;;22.70;63.30;;;;;;4994002;28;20046;-85
2021/06/24 12:33:05;;;;;;;15.45;9.32;;;22.80;62.50;;;;;;4995209;28;20050;-85
2021/06/24 12:35:37;;;;;;;11.57;8.38;;;22.80;62.20;;;;;;4994760;28;20065;-85
2021/06/24 12:38:30;;;;;;;12.63;8.45;;;22.90;62.30;;;;;;5012480;28;20050;-86
2021/06/24 12:41:06;;;;;;;11.90;9.13;;;22.90;62.30;;;;;;4994725;28;20052;-84
2021/06/24 12:43:34;;;;;;;15.05;9.45;;;22.90;62.40;;;;;;4994497;28;20411;-84
2021/06/24 12:46:05;;;;;;;17.52;8.98;;;22.90;62.30;;;;;;4994976;28;20050;-85
2021/06/24 12:48:44;;;;;;;14.45;9.60;;;22.80;62.10;;;;;;4994577;28;20397;-87
2021/06/24 12:51:18;;;;;;;14.57;9.68;;;22.80;62.00;;;;;;4994285;28;20511;-82
2021/06/24 12:53:48;;;;;;;14.25;9.48;;;22.80;62.10;;;;;;4994847;28;20116;-83
2021/06/24 12:56:32;;;;;;;11.95;7.90;;;22.60;62.40;;;;;;4994456;28;20073;-82
2021/06/24 12:59:22;;;;;;;14.00;9.50;;;22.60;62.70;;;;;;4994614;28;20060;-83
2021/06/24 13:01:52;;;;;;;16.85;9.63;;;22.70;63.20;;;;;;4994629;28;20133;-82
2021/06/24 13:04:28;;;;;;;14.15;8.80;;;22.80;63.10;;;;;;4994270;28;20521;-83
2021/06/24 13:07:00;;;;;;;14.43;8.73;;;22.70;62.40;;;;;;4994687;28;20129;-84
2021/06/24 13:09:40;;;;;;;11.85;7.43;;;22.70;62.10;;;;;;4994501;28;20419;-82
2021/06/24 13:12:08;;;;;;;12.02;6.90;;;22.70;62.20;;;;;;4994357;28;20046;-84